sensor_id;sensor_type;location;lat;lon;timestamp;P1;durP1;ratioP1;P2;durP2;ratioP2
9708;SDS011;4893;42.024;23.098;2022-12-07T00:01:28;5.27;;;3.30;;
9708;SDS011;4893;42.024;23.098;2022-12-07T00:03:57;8.90;;;2.73;;
9708;SDS011;4893;42.024;23.098;2022-12-07T00:06:29;4.87;;;2.80;;
9708;SDS011;4893;42.024;23.098;2022-12-07T00:08:59;8.37;;;3.43;;
9708;SDS011;4893;42.024;23.098;2022-12-07T00:11:25;8.23;;;3.13;;
9708;SDS011;4893;42.024;23.098;2022-12-07T00:13:51;6.73;;;3.40;;
9708;SDS011;4893;42.024;23.098;2022-12-07T00:16:28;8.80;;;3.57;;
9708;SDS011;4893;42.024;23.098;2022-12-07T00:18:55;2.50;;;2.33;;
9708;SDS011;4893;42.024;23.098;2022-12-07T00:21:22;9.10;;;3.20;;
9708;SDS011;4893;42.024;23.098;2022-12-07T00:23:52;4.70;;;2.47;;
9708;SDS011;4893;42.024;23.098;2022-12-07T00:26:20;9.47;;;2.73;;
9708;SDS011;4893;42.024;23.098;2022-12-07T00:28:50;5.40;;;2.93;;
9708;SDS011;4893;42.024;23.098;2022-12-07T00:31:25;5.70;;;2.27;;
9708;SDS011;4893;42.024;23.098;2022-12-07T00:33:52;4.77;;;2.20;;
9708;SDS011;4893;42.024;23.098;2022-12-07T00:36:19;7.23;;;3.07;;
9708;SDS011;4893;42.024;23.098;2022-12-07T00:38:46;2.77;;;2.57;;
9708;SDS011;4893;42.024;23.098;2022-12-07T00:41:19;6.47;;;2.77;;
9708;SDS011;4893;42.024;23.098;2022-12-07T00:43:46;3.37;;;2.73;;
9708;SDS011;4893;42.024;23.098;2022-12-07T00:46:13;3.83;;;2.97;;
9708;SDS011;4893;42.024;23.098;2022-12-07T00:48:40;11.63;;;3.00;;
9708;SDS011;4893;42.024;23.098;2022-12-07T00:51:06;5.23;;;2.93;;
9708;SDS011;4893;42.024;23.098;2022-12-07T00:53:35;2.43;;;2.33;;
9708;SDS011;4893;42.024;23.098;2022-12-07T00:56:05;4.03;;;2.80;;
9708;SDS011;4893;42.024;23.098;2022-12-07T00:58:34;7.07;;;3.63;;
9708;SDS011;4893;42.024;23.098;2022-12-07T01:01:03;6.57;;;3.53;;
9708;SDS011;4893;42.024;23.098;2022-12-07T01:03:30;8.13;;;3.00;;
9708;SDS011;4893;42.024;23.098;2022-12-07T01:05:56;3.90;;;3.27;;
9708;SDS011;4893;42.024;23.098;2022-12-07T01:08:23;4.07;;;3.27;;
9708;SDS011;4893;42.024;23.098;2022-12-07T01:10:56;3.30;;;3.00;;
9708;SDS011;4893;42.024;23.098;2022-12-07T01:13:23;5.60;;;3.17;;
9708;SDS011;4893;42.024;23.098;2022-12-07T01:15:48;2.70;;;2.50;;
9708;SDS011;4893;42.024;23.098;2022-12-07T01:18:14;4.90;;;3.07;;
9708;SDS011;4893;42.024;23.098;2022-12-07T01:20:39;4.43;;;3.07;;
9708;SDS011;4893;42.024;23.098;2022-12-07T01:23:05;9.57;;;3.10;;
9708;SDS011;4893;42.024;23.098;2022-12-07T01:25:31;7.40;;;3.40;;
9708;SDS011;4893;42.024;23.098;2022-12-07T01:27:56;3.97;;;3.57;;
9708;SDS011;4893;42.024;23.098;2022-12-07T01:30:22;7.97;;;3.73;;
9708;SDS011;4893;42.024;23.098;2022-12-07T01:32:47;4.90;;;3.33;;
9708;SDS011;4893;42.024;23.098;2022-12-07T01:35:13;6.03;;;3.50;;
9708;SDS011;4893;42.024;23.098;2022-12-07T01:37:38;7.30;;;4.10;;
9708;SDS011;4893;42.024;23.098;2022-12-07T01:40:05;7.37;;;3.67;;
9708;SDS011;4893;42.024;23.098;2022-12-07T01:42:32;15.57;;;7.07;;
9708;SDS011;4893;42.024;23.098;2022-12-07T01:48:01;6.00;;;4.10;;
9708;SDS011;4893;42.024;23.098;2022-12-07T01:50:27;7.00;;;4.47;;
9708;SDS011;4893;42.024;23.098;2022-12-07T01:52:57;6.73;;;3.20;;
9708;SDS011;4893;42.024;23.098;2022-12-07T01:55:26;4.10;;;2.63;;
9708;SDS011;4893;42.024;23.098;2022-12-07T01:57:52;7.57;;;2.93;;
9708;SDS011;4893;42.024;23.098;2022-12-07T02:00:19;8.17;;;3.20;;
9708;SDS011;4893;42.024;23.098;2022-12-07T02:02:55;4.20;;;3.10;;
9708;SDS011;4893;42.024;23.098;2022-12-07T02:05:26;8.20;;;3.17;;
9708;SDS011;4893;42.024;23.098;2022-12-07T02:07:53;8.33;;;3.50;;
9708;SDS011;4893;42.024;23.098;2022-12-07T02:12:50;6.90;;;3.93;;
9708;SDS011;4893;42.024;23.098;2022-12-07T02:15:21;4.07;;;3.30;;
9708;SDS011;4893;42.024;23.098;2022-12-07T02:17:52;4.50;;;3.10;;
9708;SDS011;4893;42.024;23.098;2022-12-07T02:31:43;9.67;;;3.10;;
9708;SDS011;4893;42.024;23.098;2022-12-07T02:34:19;4.40;;;2.80;;
9708;SDS011;4893;42.024;23.098;2022-12-07T02:36:47;3.43;;;3.00;;
9708;SDS011;4893;42.024;23.098;2022-12-07T02:39:24;4.77;;;3.43;;
9708;SDS011;4893;42.024;23.098;2022-12-07T02:41:55;6.37;;;3.03;;
9708;SDS011;4893;42.024;23.098;2022-12-07T02:44:27;3.77;;;3.17;;
9708;SDS011;4893;42.024;23.098;2022-12-07T02:47:01;5.83;;;3.30;;
9708;SDS011;4893;42.024;23.098;2022-12-07T02:49:30;3.50;;;3.20;;
9708;SDS011;4893;42.024;23.098;2022-12-07T02:51:56;7.73;;;3.13;;
9708;SDS011;4893;42.024;23.098;2022-12-07T02:54:22;9.53;;;4.10;;
9708;SDS011;4893;42.024;23.098;2022-12-07T02:59:45;7.83;;;3.80;;
9708;SDS011;4893;42.024;23.098;2022-12-07T03:15:46;9.73;;;4.23;;
9708;SDS011;4893;42.024;23.098;2022-12-07T03:18:25;7.93;;;4.00;;
9708;SDS011;4893;42.024;23.098;2022-12-07T03:20:55;8.67;;;3.67;;
9708;SDS011;4893;42.024;23.098;2022-12-07T03:23:24;12.50;;;3.00;;
9708;SDS011;4893;42.024;23.098;2022-12-07T03:25:53;4.90;;;3.20;;
9708;SDS011;4893;42.024;23.098;2022-12-07T03:28:24;3.43;;;2.93;;
9708;SDS011;4893;42.024;23.098;2022-12-07T03:30:56;5.83;;;3.10;;
9708;SDS011;4893;42.024;23.098;2022-12-07T03:33:31;3.87;;;3.47;;
9708;SDS011;4893;42.024;23.098;2022-12-07T03:36:04;6.63;;;3.50;;
9708;SDS011;4893;42.024;23.098;2022-12-07T03:38:45;7.07;;;3.47;;
9708;SDS011;4893;42.024;23.098;2022-12-07T03:41:21;8.03;;;4.10;;
9708;SDS011;4893;42.024;23.098;2022-12-07T03:43:49;12.33;;;3.50;;
9708;SDS011;4893;42.024;23.098;2022-12-07T03:49:27;6.83;;;3.20;;
9708;SDS011;4893;42.024;23.098;2022-12-07T03:54:49;7.70;;;2.60;;
9708;SDS011;4893;42.024;23.098;2022-12-07T03:57:22;2.53;;;2.30;;
9708;SDS011;4893;42.024;23.098;2022-12-07T03:59:50;33.10;;;13.50;;
9708;SDS011;4893;42.024;23.098;2022-12-07T04:02:18;6.73;;;3.90;;
9708;SDS011;4893;42.024;23.098;2022-12-07T04:04:45;5.90;;;2.43;;
9708;SDS011;4893;42.024;23.098;2022-12-07T04:07:10;3.73;;;2.13;;
9708;SDS011;4893;42.024;23.098;2022-12-07T04:09:36;8.50;;;2.97;;
9708;SDS011;4893;42.024;23.098;2022-12-07T04:12:01;6.00;;;2.90;;
9708;SDS011;4893;42.024;23.098;2022-12-07T04:14:27;9.43;;;3.07;;
9708;SDS011;4893;42.024;23.098;2022-12-07T04:16:56;5.63;;;3.33;;
9708;SDS011;4893;42.024;23.098;2022-12-07T04:19:24;23.23;;;11.20;;
9708;SDS011;4893;42.024;23.098;2022-12-07T04:21:55;13.60;;;8.00;;
9708;SDS011;4893;42.024;23.098;2022-12-07T04:24:22;13.07;;;5.53;;
9708;SDS011;4893;42.024;23.098;2022-12-07T04:26:47;11.17;;;5.87;;
9708;SDS011;4893;42.024;23.098;2022-12-07T04:29:13;5.20;;;2.60;;
9708;SDS011;4893;42.024;23.098;2022-12-07T04:31:40;2.90;;;2.70;;
9708;SDS011;4893;42.024;23.098;2022-12-07T04:34:06;5.97;;;2.80;;
9708;SDS011;4893;42.024;23.098;2022-12-07T04:36:32;5.30;;;2.53;;
9708;SDS011;4893;42.024;23.098;2022-12-07T04:38:58;6.33;;;2.53;;
9708;SDS011;4893;42.024;23.098;2022-12-07T04:41:24;13.03;;;2.90;;
9708;SDS011;4893;42.024;23.098;2022-12-07T04:43:57;7.90;;;2.83;;
9708;SDS011;4893;42.024;23.098;2022-12-07T04:46:25;5.50;;;3.20;;
9708;SDS011;4893;42.024;23.098;2022-12-07T04:48:51;11.27;;;4.90;;
9708;SDS011;4893;42.024;23.098;2022-12-07T04:51:19;6.33;;;4.70;;
9708;SDS011;4893;42.024;23.098;2022-12-07T04:53:47;14.73;;;4.03;;
9708;SDS011;4893;42.024;23.098;2022-12-07T04:56:13;11.50;;;4.60;;
9708;SDS011;4893;42.024;23.098;2022-12-07T04:58:40;15.77;;;6.13;;
9708;SDS011;4893;42.024;23.098;2022-12-07T05:01:05;13.67;;;8.00;;
9708;SDS011;4893;42.024;23.098;2022-12-07T05:03:31;7.93;;;4.80;;
9708;SDS011;4893;42.024;23.098;2022-12-07T05:05:56;7.60;;;4.63;;
9708;SDS011;4893;42.024;23.098;2022-12-07T05:08:22;5.23;;;3.80;;
9708;SDS011;4893;42.024;23.098;2022-12-07T05:10:48;13.30;;;4.00;;
9708;SDS011;4893;42.024;23.098;2022-12-07T05:13:14;14.17;;;4.17;;
9708;SDS011;4893;42.024;23.098;2022-12-07T05:15:39;16.27;;;5.40;;
9708;SDS011;4893;42.024;23.098;2022-12-07T05:18:05;9.53;;;5.00;;
9708;SDS011;4893;42.024;23.098;2022-12-07T05:20:30;9.20;;;4.87;;
9708;SDS011;4893;42.024;23.098;2022-12-07T05:22:56;16.63;;;7.20;;
9708;SDS011;4893;42.024;23.098;2022-12-07T05:25:23;32.30;;;13.83;;
9708;SDS011;4893;42.024;23.098;2022-12-07T05:27:49;32.97;;;8.63;;
9708;SDS011;4893;42.024;23.098;2022-12-07T05:30:14;22.80;;;7.20;;
9708;SDS011;4893;42.024;23.098;2022-12-07T05:32:40;37.50;;;8.33;;
9708;SDS011;4893;42.024;23.098;2022-12-07T05:35:05;29.13;;;12.57;;
9708;SDS011;4893;42.024;23.098;2022-12-07T05:37:31;26.50;;;12.73;;
9708;SDS011;4893;42.024;23.098;2022-12-07T05:39:56;30.33;;;11.43;;
9708;SDS011;4893;42.024;23.098;2022-12-07T05:42:22;18.80;;;9.47;;
9708;SDS011;4893;42.024;23.098;2022-12-07T05:44:47;24.87;;;11.23;;
9708;SDS011;4893;42.024;23.098;2022-12-07T05:47:13;93.77;;;13.40;;
9708;SDS011;4893;42.024;23.098;2022-12-07T05:49:39;38.40;;;12.40;;
9708;SDS011;4893;42.024;23.098;2022-12-07T05:52:05;27.30;;;10.27;;
9708;SDS011;4893;42.024;23.098;2022-12-07T05:54:31;29.10;;;10.23;;
9708;SDS011;4893;42.024;23.098;2022-12-07T05:56:56;24.10;;;10.27;;
9708;SDS011;4893;42.024;23.098;2022-12-07T05:59:22;36.00;;;11.03;;
9708;SDS011;4893;42.024;23.098;2022-12-07T06:01:55;27.87;;;10.57;;
9708;SDS011;4893;42.024;23.098;2022-12-07T06:04:23;27.77;;;10.07;;
9708;SDS011;4893;42.024;23.098;2022-12-07T06:06:50;18.60;;;9.57;;
9708;SDS011;4893;42.024;23.098;2022-12-07T06:09:16;34.00;;;11.23;;
9708;SDS011;4893;42.024;23.098;2022-12-07T06:11:43;15.10;;;10.17;;
9708;SDS011;4893;42.024;23.098;2022-12-07T06:14:32;28.53;;;10.63;;
9708;SDS011;4893;42.024;23.098;2022-12-07T06:16:57;19.57;;;9.83;;
9708;SDS011;4893;42.024;23.098;2022-12-07T06:19:23;31.20;;;10.20;;
9708;SDS011;4893;42.024;23.098;2022-12-07T06:21:48;37.93;;;9.83;;
9708;SDS011;4893;42.024;23.098;2022-12-07T06:24:14;26.50;;;14.27;;
9708;SDS011;4893;42.024;23.098;2022-12-07T06:26:40;32.03;;;18.17;;
9708;SDS011;4893;42.024;23.098;2022-12-07T06:29:06;27.40;;;11.00;;
9708;SDS011;4893;42.024;23.098;2022-12-07T06:31:35;37.60;;;13.77;;
9708;SDS011;4893;42.024;23.098;2022-12-07T06:34:01;46.30;;;18.13;;
9708;SDS011;4893;42.024;23.098;2022-12-07T06:36:29;42.10;;;23.50;;
9708;SDS011;4893;42.024;23.098;2022-12-07T06:38:54;50.33;;;22.40;;
9708;SDS011;4893;42.024;23.098;2022-12-07T06:41:20;42.50;;;15.77;;
9708;SDS011;4893;42.024;23.098;2022-12-07T06:43:45;38.30;;;18.60;;
9708;SDS011;4893;42.024;23.098;2022-12-07T06:46:12;36.57;;;11.90;;
9708;SDS011;4893;42.024;23.098;2022-12-07T06:48:39;35.50;;;10.13;;
9708;SDS011;4893;42.024;23.098;2022-12-07T06:51:05;36.43;;;10.17;;
9708;SDS011;4893;42.024;23.098;2022-12-07T06:53:30;37.97;;;12.53;;
9708;SDS011;4893;42.024;23.098;2022-12-07T06:55:56;57.77;;;22.77;;
9708;SDS011;4893;42.024;23.098;2022-12-07T06:58:21;40.40;;;18.63;;
9708;SDS011;4893;42.024;23.098;2022-12-07T07:00:47;35.37;;;16.40;;
9708;SDS011;4893;42.024;23.098;2022-12-07T07:03:14;20.47;;;9.63;;
9708;SDS011;4893;42.024;23.098;2022-12-07T07:05:39;36.90;;;11.53;;
9708;SDS011;4893;42.024;23.098;2022-12-07T07:08:05;22.43;;;11.07;;
9708;SDS011;4893;42.024;23.098;2022-12-07T07:10:30;33.27;;;12.07;;
9708;SDS011;4893;42.024;23.098;2022-12-07T07:12:56;34.83;;;10.70;;
9708;SDS011;4893;42.024;23.098;2022-12-07T07:15:21;12.37;;;8.07;;
9708;SDS011;4893;42.024;23.098;2022-12-07T07:17:47;17.23;;;6.57;;
9708;SDS011;4893;42.024;23.098;2022-12-07T07:20:12;20.10;;;7.17;;
9708;SDS011;4893;42.024;23.098;2022-12-07T07:22:38;16.37;;;6.83;;
9708;SDS011;4893;42.024;23.098;2022-12-07T07:25:04;14.73;;;8.00;;
9708;SDS011;4893;42.024;23.098;2022-12-07T07:27:29;27.10;;;7.90;;
9708;SDS011;4893;42.024;23.098;2022-12-07T07:29:55;20.40;;;7.63;;
9708;SDS011;4893;42.024;23.098;2022-12-07T07:32:20;13.97;;;4.87;;
9708;SDS011;4893;42.024;23.098;2022-12-07T07:34:47;12.70;;;5.00;;
9708;SDS011;4893;42.024;23.098;2022-12-07T07:37:12;14.73;;;6.60;;
9708;SDS011;4893;42.024;23.098;2022-12-07T07:39:39;20.70;;;8.60;;
9708;SDS011;4893;42.024;23.098;2022-12-07T07:42:04;21.40;;;10.33;;
9708;SDS011;4893;42.024;23.098;2022-12-07T07:44:30;14.20;;;7.63;;
9708;SDS011;4893;42.024;23.098;2022-12-07T07:46:56;20.47;;;8.63;;
9708;SDS011;4893;42.024;23.098;2022-12-07T07:49:21;14.50;;;6.53;;
9708;SDS011;4893;42.024;23.098;2022-12-07T07:51:47;10.27;;;6.10;;
9708;SDS011;4893;42.024;23.098;2022-12-07T07:54:12;40.60;;;11.90;;
9708;SDS011;4893;42.024;23.098;2022-12-07T07:56:37;18.10;;;6.37;;
9708;SDS011;4893;42.024;23.098;2022-12-07T07:59:03;25.03;;;9.83;;
9708;SDS011;4893;42.024;23.098;2022-12-07T08:01:28;25.43;;;13.73;;
9708;SDS011;4893;42.024;23.098;2022-12-07T08:03:54;24.97;;;11.73;;
9708;SDS011;4893;42.024;23.098;2022-12-07T08:06:19;27.87;;;8.30;;
9708;SDS011;4893;42.024;23.098;2022-12-07T08:08:44;16.70;;;7.37;;
9708;SDS011;4893;42.024;23.098;2022-12-07T08:11:10;69.77;;;10.63;;
9708;SDS011;4893;42.024;23.098;2022-12-07T08:13:36;14.07;;;6.60;;
9708;SDS011;4893;42.024;23.098;2022-12-07T08:16:08;17.27;;;6.30;;
9708;SDS011;4893;42.024;23.098;2022-12-07T08:18:36;19.67;;;7.37;;
9708;SDS011;4893;42.024;23.098;2022-12-07T08:21:03;16.30;;;8.33;;
9708;SDS011;4893;42.024;23.098;2022-12-07T08:23:29;33.47;;;12.37;;
9708;SDS011;4893;42.024;23.098;2022-12-07T08:25:55;54.97;;;11.07;;
9708;SDS011;4893;42.024;23.098;2022-12-07T08:28:24;39.93;;;15.17;;
9708;SDS011;4893;42.024;23.098;2022-12-07T08:30:50;27.37;;;13.73;;
9708;SDS011;4893;42.024;23.098;2022-12-07T08:33:15;6.13;;;4.37;;
9708;SDS011;4893;42.024;23.098;2022-12-07T08:35:41;15.60;;;4.43;;
9708;SDS011;4893;42.024;23.098;2022-12-07T08:38:06;12.30;;;4.10;;
9708;SDS011;4893;42.024;23.098;2022-12-07T08:40:31;7.70;;;4.73;;
9708;SDS011;4893;42.024;23.098;2022-12-07T08:42:57;11.27;;;4.93;;
9708;SDS011;4893;42.024;23.098;2022-12-07T08:45:22;8.57;;;4.57;;
9708;SDS011;4893;42.024;23.098;2022-12-07T08:47:50;7.87;;;5.00;;
9708;SDS011;4893;42.024;23.098;2022-12-07T08:50:20;16.50;;;5.33;;
9708;SDS011;4893;42.024;23.098;2022-12-07T08:52:56;15.20;;;5.93;;
9708;SDS011;4893;42.024;23.098;2022-12-07T08:55:24;13.97;;;4.90;;
9708;SDS011;4893;42.024;23.098;2022-12-07T08:57:51;25.20;;;8.70;;
9708;SDS011;4893;42.024;23.098;2022-12-07T09:00:16;11.50;;;5.20;;
9708;SDS011;4893;42.024;23.098;2022-12-07T09:02:43;6.77;;;4.10;;
9708;SDS011;4893;42.024;23.098;2022-12-07T09:05:11;15.37;;;5.50;;
9708;SDS011;4893;42.024;23.098;2022-12-07T09:07:39;10.00;;;3.87;;
9708;SDS011;4893;42.024;23.098;2022-12-07T09:10:07;12.07;;;4.93;;
9708;SDS011;4893;42.024;23.098;2022-12-07T09:12:32;13.33;;;4.70;;
9708;SDS011;4893;42.024;23.098;2022-12-07T09:14:58;5.23;;;4.23;;
9708;SDS011;4893;42.024;23.098;2022-12-07T09:17:25;8.50;;;4.60;;
9708;SDS011;4893;42.024;23.098;2022-12-07T09:19:51;8.07;;;4.37;;
9708;SDS011;4893;42.024;23.098;2022-12-07T09:22:16;6.30;;;4.43;;
9708;SDS011;4893;42.024;23.098;2022-12-07T09:24:41;7.93;;;3.33;;
9708;SDS011;4893;42.024;23.098;2022-12-07T09:27:07;30.70;;;8.27;;
9708;SDS011;4893;42.024;23.098;2022-12-07T09:29:32;24.17;;;6.27;;
9708;SDS011;4893;42.024;23.098;2022-12-07T09:31:58;27.07;;;8.03;;
9708;SDS011;4893;42.024;23.098;2022-12-07T09:34:23;17.97;;;4.80;;
9708;SDS011;4893;42.024;23.098;2022-12-07T09:36:49;8.77;;;3.70;;
9708;SDS011;4893;42.024;23.098;2022-12-07T09:39:14;10.10;;;4.07;;
9708;SDS011;4893;42.024;23.098;2022-12-07T09:41:40;9.40;;;3.80;;
9708;SDS011;4893;42.024;23.098;2022-12-07T09:44:12;6.03;;;3.60;;
9708;SDS011;4893;42.024;23.098;2022-12-07T09:46:40;5.13;;;2.53;;
9708;SDS011;4893;42.024;23.098;2022-12-07T09:49:18;6.30;;;3.77;;
9708;SDS011;4893;42.024;23.098;2022-12-07T09:51:46;6.60;;;3.13;;
9708;SDS011;4893;42.024;23.098;2022-12-07T09:54:13;5.73;;;3.13;;
9708;SDS011;4893;42.024;23.098;2022-12-07T09:56:40;4.87;;;3.50;;
9708;SDS011;4893;42.024;23.098;2022-12-07T09:59:09;10.40;;;3.97;;
9708;SDS011;4893;42.024;23.098;2022-12-07T10:01:43;3.83;;;3.10;;
9708;SDS011;4893;42.024;23.098;2022-12-07T10:04:11;16.43;;;3.40;;
9708;SDS011;4893;42.024;23.098;2022-12-07T10:06:40;5.20;;;2.87;;
9708;SDS011;4893;42.024;23.098;2022-12-07T10:09:10;11.53;;;3.10;;
9708;SDS011;4893;42.024;23.098;2022-12-07T10:14:30;5.67;;;2.90;;
9708;SDS011;4893;42.024;23.098;2022-12-07T10:16:57;10.93;;;3.13;;
9708;SDS011;4893;42.024;23.098;2022-12-07T10:19:28;4.30;;;2.90;;
9708;SDS011;4893;42.024;23.098;2022-12-07T10:22:03;6.57;;;4.33;;
9708;SDS011;4893;42.024;23.098;2022-12-07T10:24:29;13.07;;;7.77;;
9708;SDS011;4893;42.024;23.098;2022-12-07T10:26:54;16.43;;;6.27;;
9708;SDS011;4893;42.024;23.098;2022-12-07T10:29:24;8.77;;;5.67;;
9708;SDS011;4893;42.024;23.098;2022-12-07T10:34:34;9.50;;;3.40;;
9708;SDS011;4893;42.024;23.098;2022-12-07T10:37:15;8.47;;;3.73;;
9708;SDS011;4893;42.024;23.098;2022-12-07T10:39:47;7.13;;;2.93;;
9708;SDS011;4893;42.024;23.098;2022-12-07T10:42:17;6.40;;;3.40;;
9708;SDS011;4893;42.024;23.098;2022-12-07T10:44:47;7.60;;;2.90;;
9708;SDS011;4893;42.024;23.098;2022-12-07T10:53:02;3.93;;;2.87;;
9708;SDS011;4893;42.024;23.098;2022-12-07T11:01:25;17.73;;;7.83;;
9708;SDS011;4893;42.024;23.098;2022-12-07T11:07:18;11.87;;;6.20;;
9708;SDS011;4893;42.024;23.098;2022-12-07T11:15:20;10.77;;;4.00;;
9708;SDS011;4893;42.024;23.098;2022-12-07T11:17:49;11.23;;;4.63;;
9708;SDS011;4893;42.024;23.098;2022-12-07T11:26:27;6.40;;;3.23;;
9708;SDS011;4893;42.024;23.098;2022-12-07T11:34:21;9.93;;;5.83;;
9708;SDS011;4893;42.024;23.098;2022-12-07T11:36:54;8.43;;;4.80;;
9708;SDS011;4893;42.024;23.098;2022-12-07T11:41:48;18.33;;;3.77;;
9708;SDS011;4893;42.024;23.098;2022-12-07T11:46:58;4.67;;;3.70;;
9708;SDS011;4893;42.024;23.098;2022-12-07T11:54:57;37.77;;;8.30;;
9708;SDS011;4893;42.024;23.098;2022-12-07T11:57:28;9.43;;;4.33;;
9708;SDS011;4893;42.024;23.098;2022-12-07T12:00:04;11.70;;;4.47;;
9708;SDS011;4893;42.024;23.098;2022-12-07T12:02:54;6.83;;;4.50;;
9708;SDS011;4893;42.024;23.098;2022-12-07T12:05:22;5.20;;;4.07;;
9708;SDS011;4893;42.024;23.098;2022-12-07T12:13:28;9.27;;;3.97;;
9708;SDS011;4893;42.024;23.098;2022-12-07T12:18:53;9.20;;;4.67;;
9708;SDS011;4893;42.024;23.098;2022-12-07T12:21:22;7.67;;;4.27;;
9708;SDS011;4893;42.024;23.098;2022-12-07T12:24:00;10.00;;;4.20;;
9708;SDS011;4893;42.024;23.098;2022-12-07T12:26:33;16.83;;;4.07;;
9708;SDS011;4893;42.024;23.098;2022-12-07T12:29:03;4.93;;;4.27;;
9708;SDS011;4893;42.024;23.098;2022-12-07T12:31:39;9.80;;;3.37;;
9708;SDS011;4893;42.024;23.098;2022-12-07T12:36:56;5.67;;;3.30;;
9708;SDS011;4893;42.024;23.098;2022-12-07T12:39:21;5.90;;;2.90;;
9708;SDS011;4893;42.024;23.098;2022-12-07T12:51:49;8.97;;;3.97;;
9708;SDS011;4893;42.024;23.098;2022-12-07T12:56:52;24.40;;;16.50;;
9708;SDS011;4893;42.024;23.098;2022-12-07T13:02:30;11.80;;;5.70;;
9708;SDS011;4893;42.024;23.098;2022-12-07T13:18:01;5.50;;;3.60;;
9708;SDS011;4893;42.024;23.098;2022-12-07T13:23:13;6.50;;;3.87;;
9708;SDS011;4893;42.024;23.098;2022-12-07T13:25:49;6.00;;;3.37;;
9708;SDS011;4893;42.024;23.098;2022-12-07T13:28:37;4.73;;;3.73;;
9708;SDS011;4893;42.024;23.098;2022-12-07T13:33:46;4.90;;;3.60;;
9708;SDS011;4893;42.024;23.098;2022-12-07T13:36:16;8.67;;;4.20;;
9708;SDS011;4893;42.024;23.098;2022-12-07T13:41:18;90.03;;;23.37;;
9708;SDS011;4893;42.024;23.098;2022-12-07T13:43:50;27.30;;;10.63;;
9708;SDS011;4893;42.024;23.098;2022-12-07T13:46:19;10.97;;;5.20;;
9708;SDS011;4893;42.024;23.098;2022-12-07T13:48:50;7.00;;;4.63;;
9708;SDS011;4893;42.024;23.098;2022-12-07T13:51:24;5.57;;;4.23;;
9708;SDS011;4893;42.024;23.098;2022-12-07T13:53:55;8.77;;;3.93;;
9708;SDS011;4893;42.024;23.098;2022-12-07T13:56:34;11.47;;;4.23;;
9708;SDS011;4893;42.024;23.098;2022-12-07T13:59:01;6.43;;;4.20;;
9708;SDS011;4893;42.024;23.098;2022-12-07T14:01:28;12.30;;;6.47;;
9708;SDS011;4893;42.024;23.098;2022-12-07T14:03:56;13.33;;;6.97;;
9708;SDS011;4893;42.024;23.098;2022-12-07T14:06:51;14.77;;;7.00;;
9708;SDS011;4893;42.024;23.098;2022-12-07T14:09:18;9.57;;;5.40;;
9708;SDS011;4893;42.024;23.098;2022-12-07T14:11:47;14.33;;;6.23;;
9708;SDS011;4893;42.024;23.098;2022-12-07T14:14:14;11.50;;;5.37;;
9708;SDS011;4893;42.024;23.098;2022-12-07T14:16:43;10.23;;;5.70;;
9708;SDS011;4893;42.024;23.098;2022-12-07T14:27:34;7.80;;;5.20;;
9708;SDS011;4893;42.024;23.098;2022-12-07T14:30:01;10.90;;;7.00;;
9708;SDS011;4893;42.024;23.098;2022-12-07T14:32:28;28.87;;;10.00;;
9708;SDS011;4893;42.024;23.098;2022-12-07T14:34:55;16.27;;;8.73;;
9708;SDS011;4893;42.024;23.098;2022-12-07T14:37:25;12.87;;;5.87;;
9708;SDS011;4893;42.024;23.098;2022-12-07T14:39:51;7.47;;;4.83;;
9708;SDS011;4893;42.024;23.098;2022-12-07T14:42:17;6.90;;;4.13;;
9708;SDS011;4893;42.024;23.098;2022-12-07T14:44:43;8.33;;;5.00;;
9708;SDS011;4893;42.024;23.098;2022-12-07T14:47:10;10.57;;;6.23;;
9708;SDS011;4893;42.024;23.098;2022-12-07T14:49:36;6.57;;;5.70;;
9708;SDS011;4893;42.024;23.098;2022-12-07T14:52:01;9.33;;;4.27;;
9708;SDS011;4893;42.024;23.098;2022-12-07T14:54:27;13.67;;;7.93;;
9708;SDS011;4893;42.024;23.098;2022-12-07T14:56:56;6.43;;;4.73;;
9708;SDS011;4893;42.024;23.098;2022-12-07T14:59:21;7.87;;;4.77;;
9708;SDS011;4893;42.024;23.098;2022-12-07T15:01:47;8.63;;;5.97;;
9708;SDS011;4893;42.024;23.098;2022-12-07T15:04:12;9.10;;;5.67;;
9708;SDS011;4893;42.024;23.098;2022-12-07T15:06:38;8.63;;;5.67;;
9708;SDS011;4893;42.024;23.098;2022-12-07T15:09:04;8.17;;;5.60;;
9708;SDS011;4893;42.024;23.098;2022-12-07T15:11:30;12.73;;;8.77;;
9708;SDS011;4893;42.024;23.098;2022-12-07T15:13:55;7.20;;;5.17;;
9708;SDS011;4893;42.024;23.098;2022-12-07T15:16:33;12.77;;;5.47;;
9708;SDS011;4893;42.024;23.098;2022-12-07T15:19:00;12.80;;;6.00;;
9708;SDS011;4893;42.024;23.098;2022-12-07T15:21:26;9.37;;;6.17;;
9708;SDS011;4893;42.024;23.098;2022-12-07T15:23:51;13.17;;;4.43;;
9708;SDS011;4893;42.024;23.098;2022-12-07T15:26:17;8.03;;;4.27;;
9708;SDS011;4893;42.024;23.098;2022-12-07T15:28:42;44.77;;;23.77;;
9708;SDS011;4893;42.024;23.098;2022-12-07T15:31:14;17.63;;;10.00;;
9708;SDS011;4893;42.024;23.098;2022-12-07T15:33:41;13.17;;;6.90;;
9708;SDS011;4893;42.024;23.098;2022-12-07T15:36:07;48.60;;;10.83;;
9708;SDS011;4893;42.024;23.098;2022-12-07T15:38:33;27.80;;;11.90;;
9708;SDS011;4893;42.024;23.098;2022-12-07T15:40:58;10.87;;;6.70;;
9708;SDS011;4893;42.024;23.098;2022-12-07T15:43:23;13.00;;;6.40;;
9708;SDS011;4893;42.024;23.098;2022-12-07T15:46:07;17.70;;;5.60;;
9708;SDS011;4893;42.024;23.098;2022-12-07T15:48:33;46.93;;;9.30;;
9708;SDS011;4893;42.024;23.098;2022-12-07T15:51:05;22.00;;;8.67;;
9708;SDS011;4893;42.024;23.098;2022-12-07T15:53:32;24.53;;;9.83;;
9708;SDS011;4893;42.024;23.098;2022-12-07T15:55:58;14.80;;;9.67;;
9708;SDS011;4893;42.024;23.098;2022-12-07T15:58:24;47.63;;;15.20;;
9708;SDS011;4893;42.024;23.098;2022-12-07T16:00:50;19.27;;;9.77;;
9708;SDS011;4893;42.024;23.098;2022-12-07T16:03:16;39.77;;;20.43;;
9708;SDS011;4893;42.024;23.098;2022-12-07T16:05:41;20.83;;;11.37;;
9708;SDS011;4893;42.024;23.098;2022-12-07T16:08:06;30.23;;;15.47;;
9708;SDS011;4893;42.024;23.098;2022-12-07T16:10:32;20.93;;;12.37;;
9708;SDS011;4893;42.024;23.098;2022-12-07T16:12:58;16.10;;;10.57;;
9708;SDS011;4893;42.024;23.098;2022-12-07T16:15:23;10.73;;;5.13;;
9708;SDS011;4893;42.024;23.098;2022-12-07T16:17:50;12.50;;;6.10;;
9708;SDS011;4893;42.024;23.098;2022-12-07T16:20:16;7.40;;;5.80;;
9708;SDS011;4893;42.024;23.098;2022-12-07T16:22:41;8.37;;;6.20;;
9708;SDS011;4893;42.024;23.098;2022-12-07T16:25:07;16.20;;;9.40;;
9708;SDS011;4893;42.024;23.098;2022-12-07T16:27:34;29.03;;;13.97;;
9708;SDS011;4893;42.024;23.098;2022-12-07T16:29:59;8.83;;;6.37;;
9708;SDS011;4893;42.024;23.098;2022-12-07T16:32:25;12.13;;;6.97;;
9708;SDS011;4893;42.024;23.098;2022-12-07T16:34:50;8.33;;;6.10;;
9708;SDS011;4893;42.024;23.098;2022-12-07T16:37:16;11.40;;;6.50;;
9708;SDS011;4893;42.024;23.098;2022-12-07T16:39:41;10.83;;;6.00;;
9708;SDS011;4893;42.024;23.098;2022-12-07T16:42:06;7.50;;;6.27;;
9708;SDS011;4893;42.024;23.098;2022-12-07T16:44:32;16.10;;;7.57;;
9708;SDS011;4893;42.024;23.098;2022-12-07T16:46:57;19.93;;;7.13;;
9708;SDS011;4893;42.024;23.098;2022-12-07T16:49:23;9.27;;;6.33;;
9708;SDS011;4893;42.024;23.098;2022-12-07T16:51:49;9.20;;;6.10;;
9708;SDS011;4893;42.024;23.098;2022-12-07T16:54:15;16.70;;;6.23;;
9708;SDS011;4893;42.024;23.098;2022-12-07T16:56:40;9.77;;;6.07;;
9708;SDS011;4893;42.024;23.098;2022-12-07T16:59:06;9.13;;;6.33;;
9708;SDS011;4893;42.024;23.098;2022-12-07T17:01:32;11.40;;;5.70;;
9708;SDS011;4893;42.024;23.098;2022-12-07T17:03:59;7.90;;;5.67;;
9708;SDS011;4893;42.024;23.098;2022-12-07T17:06:26;10.87;;;6.57;;
9708;SDS011;4893;42.024;23.098;2022-12-07T17:08:53;11.63;;;7.23;;
9708;SDS011;4893;42.024;23.098;2022-12-07T17:11:22;10.67;;;6.83;;
9708;SDS011;4893;42.024;23.098;2022-12-07T17:13:52;12.30;;;7.00;;
9708;SDS011;4893;42.024;23.098;2022-12-07T17:16:36;12.67;;;6.23;;
9708;SDS011;4893;42.024;23.098;2022-12-07T17:19:09;27.40;;;9.77;;
9708;SDS011;4893;42.024;23.098;2022-12-07T17:21:36;14.57;;;7.03;;